Time;durP1;ratioP1;P1;durP2;ratioP2;P2;SDS_P1;SDS_P2;PMS_P1;PMS_P2;Temp;Humidity;BMP_temperature;BMP_pressure;BME280_temperature;BME280_humidity;BME280_pressure;Samples;Min_cycle;Max_cycle;Signal;HPM_P1;HPM_P2
2022/03/20 15:54:57;;;;;;;3.45;2.30;;;;;;;19.76;51.21;100269.80;1937337;72;27935;-66
2022/03/20 15:57:45;;;;;;;4.28;2.60;;;;;;;20.12;50.40;100271.84;1903420;73;28151;-64
2022/03/20 16:00:34;;;;;;;2.60;2.40;;;;;;;20.92;49.17;100275.34;1917684;73;28148;-65
2022/03/20 16:03:22;;;;;;;2.43;2.23;;;;;;;21.56;47.89;100272.48;1906167;73;28108;-65
2022/03/20 16:06:11;;;;;;;2.33;2.15;;;;;;;22.13;46.76;100276.48;1903138;73;28160;-69
2022/03/20 16:08:59;;;;;;;2.40;2.20;;;;;;;22.55;45.77;100280.92;1902468;73;28147;-70
2022/03/20 16:11:48;;;;;;;2.72;2.30;;;;;;;22.87;44.99;100268.17;1902311;73;28121;-66
2022/03/20 16:14:39;;;;;;;3.45;2.47;;;;;;;23.16;44.28;100271.73;1902134;73;28149;-69
2022/03/20 16:17:26;;;;;;;2.65;2.45;;;;;;;23.44;43.82;100265.89;1902187;73;28854;-72
2022/03/20 16:20:15;;;;;;;5.10;2.17;;;;;;;23.67;43.30;100265.30;1902378;75;28134;-71
2022/03/20 16:29:17;;;;;;;5.80;2.37;;;;;;;24.08;42.37;100265.62;1906434;73;28154;-70
2022/03/20 16:32:12;;;;;;;3.10;2.40;;;;;;;24.16;42.13;100273.55;1904348;73;28175;-68
2022/03/20 16:34:58;;;;;;;2.50;2.20;;;;;;;24.24;41.78;100271.89;1901800;75;28194;-69
2022/03/20 16:37:46;;;;;;;2.47;2.15;;;;;;;24.29;41.53;100276.17;1924959;73;28142;-67
2022/03/20 16:40:35;;;;;;;2.40;2.22;;;;;;;24.33;41.36;100277.39;1918392;73;28184;-68
2022/03/20 16:43:25;;;;;;;2.90;2.30;;;;;;;24.38;41.19;100280.83;1901991;73;28090;-72
2022/03/20 16:46:14;;;;;;;2.45;2.10;;;;;;;24.41;41.11;100282.57;1920403;73;28168;-69
2022/03/20 16:49:03;;;;;;;2.52;2.20;;;;;;;24.44;41.02;100284.87;1924349;73;28153;-69
2022/03/20 16:51:52;;;;;;;3.30;2.12;;;;;;;24.40;40.96;100286.41;1901891;75;28152;-69
2022/03/20 16:54:40;;;;;;;3.90;2.37;;;;;;;24.42;40.90;100279.30;1902251;75;28735;-70
2022/03/20 16:57:29;;;;;;;3.52;2.30;;;;;;;24.41;40.82;100290.00;1912444;73;28037;-69
2022/03/20 17:00:17;;;;;;;3.55;2.10;;;;;;;24.39;40.73;100291.58;1909036;73;28221;-69
2022/03/20 17:03:06;;;;;;;2.42;2.12;;;;;;;24.40;40.72;100286.41;1902229;75;28187;-69
2022/03/20 17:05:55;;;;;;;6.17;2.33;;;;;;;24.41;40.61;100293.55;1916257;73;28136;-68
2022/03/20 17:08:43;;;;;;;2.83;2.10;;;;;;;24.40;40.61;100292.42;1909564;73;27986;-69
2022/03/20 17:11:33;;;;;;;3.40;2.00;;;;;;;24.41;40.58;100294.93;1912879;73;28145;-68
2022/03/20 17:14:22;;;;;;;2.30;2.10;;;;;;;24.41;40.54;100305.91;1916517;73;28147;-68
2022/03/20 17:17:12;;;;;;;3.20;2.10;;;;;;;24.41;40.54;100305.09;1901725;75;28044;-68
2022/03/20 17:20:00;;;;;;;5.00;2.50;;;;;;;24.41;40.55;100301.80;1921912;73;28193;-69
2022/03/20 17:22:50;;;;;;;2.27;2.17;;;;;;;24.42;40.54;100304.86;1906252;74;28152;-69
2022/03/20 17:25:39;;;;;;;2.85;2.30;;;;;;;24.40;40.54;100308.37;1901623;75;28091;-67
2022/03/20 17:28:28;;;;;;;2.40;2.20;;;;;;;24.37;40.61;100307.44;1901796;75;28137;-68
2022/03/20 17:31:17;;;;;;;3.05;2.27;;;;;;;24.40;40.55;100304.78;1908259;73;32932;-67
2022/03/20 17:34:06;;;;;;;4.60;2.40;;;;;;;24.38;40.53;100306.39;1911852;73;28136;-68
2022/03/20 17:36:54;;;;;;;2.87;2.37;;;;;;;24.40;40.55;100311.12;1903813;73;28190;-68
2022/03/20 17:39:42;;;;;;;2.90;2.20;;;;;;;24.42;40.53;100313.62;1901382;73;28086;-70
2022/03/20 17:42:31;;;;;;;2.60;2.20;;;;;;;24.39;40.56;100316.29;1904899;73;28134;-70
2022/03/20 17:45:20;;;;;;;2.70;2.05;;;;;;;24.39;40.56;100315.45;1901322;75;28124;-69
2022/03/20 17:48:09;;;;;;;2.90;2.10;;;;;;;24.36;40.58;100319.52;1901477;75;28070;-69
2022/03/20 17:51:02;;;;;;;2.30;2.10;;;;;;;24.34;40.57;100314.75;1920014;73;28229;-69
2022/03/20 17:53:51;;;;;;;3.60;2.30;;;;;;;24.33;40.62;100313.62;1901327;75;28289;-68
2022/03/20 17:56:40;;;;;;;4.65;2.55;;;;;;;24.35;40.52;100315.59;1901628;75;28268;-69
2022/03/20 17:59:38;;;;;;;2.77;2.50;;;;;;;24.34;40.56;100318.05;1901589;75;28083;-69
2022/03/20 18:08:32;;;;;;;4.33;2.05;;;;;;;24.31;40.50;100322.09;1901368;73;28196;-66
2022/03/20 18:11:21;;;;;;;2.60;2.40;;;;;;;24.27;40.44;100327.70;1901584;75;28176;-68
2022/03/20 18:14:09;;;;;;;6.05;2.55;;;;;;;24.29;40.41;100334.36;1901865;75;31095;-67
2022/03/20 18:16:58;;;;;;;2.52;2.33;;;;;;;24.29;40.25;100345.34;1916989;73;28082;-67
2022/03/20 18:19:46;;;;;;;2.60;2.40;;;;;;;24.29;40.22;100330.24;1903301;73;28165;-67
2022/03/20 18:22:35;;;;;;;2.70;2.50;;;;;;;24.29;40.14;100335.21;1901951;75;28147;-67
2022/03/20 18:25:27;;;;;;;2.47;2.27;;;;;;;24.28;40.09;100344.50;1906349;73;28134;-67
2022/03/20 18:28:15;;;;;;;2.60;2.40;;;;;;;24.27;40.05;100351.59;1901612;75;28120;-67
2022/03/20 18:31:04;;;;;;;3.47;2.40;;;;;;;24.25;40.05;100351.80;1924090;73;28121;-67
2022/03/20 18:33:52;;;;;;;2.50;2.10;;;;;;;24.22;40.07;100356.39;1901721;75;28072;-67
2022/03/20 18:36:41;;;;;;;2.35;2.20;;;;;;;24.20;40.04;100358.50;1901482;73;28140;-67
2022/03/20 18:39:29;;;;;;;3.77;2.40;;;;;;;24.21;40.04;100356.08;1917442;73;28077;-67
2022/03/20 18:42:18;;;;;;;2.33;2.13;;;;;;;24.21;39.97;100357.45;1906197;73;28101;-67
2022/03/20 18:45:11;;;;;;;2.50;2.30;;;;;;;24.19;39.94;100362.33;1903666;73;28044;-67
2022/03/20 18:48:05;;;;;;;2.25;2.15;;;;;;;24.21;39.93;100362.09;1915336;73;28114;-67
2022/03/20 18:50:49;;;;;;;2.62;2.20;;;;;;;24.20;39.95;100363.17;1917994;73;28051;-67
2022/03/20 18:53:38;;;;;;;2.60;2.40;;;;;;;24.21;39.87;100366.20;1935521;73;31045;-67
2022/03/20 18:56:26;;;;;;;2.40;2.20;;;;;;;24.19;39.85;100359.58;1906017;73;28139;-67
2022/03/20 18:59:14;;;;;;;5.10;2.50;;;;;;;24.18;39.78;100371.61;1920401;73;28085;-67
2022/03/20 19:02:05;;;;;;;3.83;2.50;;;;;;;24.19;39.78;100371.09;1889441;75;28105;-66
2022/03/20 19:04:53;;;;;;;2.37;2.17;;;;;;;24.14;39.80;100373.66;1924094;73;28225;-67
2022/03/20 19:07:45;;;;;;;2.42;2.22;;;;;;;24.15;39.82;100373.98;1924100;73;28069;-68
2022/03/20 19:10:33;;;;;;;2.58;2.37;;;;;;;24.19;39.74;100375.20;1889224;75;28215;-65
2022/03/20 19:13:22;;;;;;;2.65;2.45;;;;;;;24.15;39.82;100373.98;1901492;75;28164;-66
2022/03/20 19:16:11;;;;;;;2.42;2.22;;;;;;;24.11;39.95;100380.43;1889456;75;31206;-63
2022/03/20 19:19:00;;;;;;;2.67;2.30;;;;;;;24.11;40.05;100379.61;1901531;75;28023;-64
2022/03/20 19:21:49;;;;;;;3.08;2.30;;;;;;;24.13;40.10;100385.72;1901567;75;28103;-64
2022/03/20 19:24:39;;;;;;;2.47;2.27;;;;;;;24.12;40.16;100384.88;1889532;75;32060;-68
2022/03/20 19:27:27;;;;;;;2.65;2.45;;;;;;;24.13;40.19;100385.72;1906622;73;28040;-69
2022/03/20 19:30:18;;;;;;;2.75;2.52;;;;;;;24.12;40.25;100386.24;1900828;74;28242;-71
2022/03/20 19:33:06;;;;;;;2.57;2.37;;;;;;;24.11;40.28;100385.11;1901621;75;28140;-68
2022/03/20 19:42:07;;;;;;;2.70;2.20;;;;;;;24.14;40.39;100386.01;1889469;75;28124;-68
2022/03/20 19:44:57;;;;;;;2.58;2.37;;;;;;;24.04;40.51;100387.31;1923181;73;28066;-68
2022/03/20 19:47:46;;;;;;;2.53;2.33;;;;;;;24.07;40.54;100391.55;1916421;74;28030;-66
2022/03/20 19:50:35;;;;;;;3.00;2.40;;;;;;;24.10;40.53;100384.78;1890175;74;28235;-67
2022/03/20 19:53:24;;;;;;;3.17;2.33;;;;;;;24.09;40.53;100375.70;1901382;75;28126;-65
2022/03/20 19:56:14;;;;;;;2.33;2.20;;;;;;;24.11;40.52;100379.06;1889414;75;28054;-70
2022/03/20 19:59:02;;;;;;;2.75;2.50;;;;;;;24.07;40.54;100387.44;1896323;74;28114;-72
2022/03/20 20:01:50;;;;;;;2.90;2.30;;;;;;;24.08;40.55;100386.39;1901465;75;28024;-68
2022/03/20 20:04:39;;;;;;;2.40;2.20;;;;;;;24.11;40.53;100387.30;1889433;75;28044;-69
2022/03/20 20:07:28;;;;;;;2.60;2.40;;;;;;;24.09;40.52;100385.83;1901590;75;28113;-67
2022/03/20 20:10:17;;;;;;;3.37;2.10;;;;;;;24.12;40.78;100387.62;1915910;73;28115;-66
2022/03/20 20:16:11;;;;;;;2.27;2.17;;;;;;;24.12;40.55;100393.11;1901271;75;28189;-68
2022/03/20 20:19:00;;;;;;;2.40;2.20;;;;;;;24.09;40.53;100393.55;1889449;75;28020;-68
2022/03/20 20:21:49;;;;;;;2.80;2.60;;;;;;;24.10;40.53;100400.73;1901832;75;28059;-66
2022/03/20 20:24:38;;;;;;;2.60;2.40;;;;;;;24.11;40.54;100400.20;1900211;74;28082;-69
2022/03/20 20:27:27;;;;;;;2.67;2.43;;;;;;;24.11;40.53;100403.77;1907550;73;28107;-73
2022/03/20 20:30:16;;;;;;;2.37;2.17;;;;;;;24.10;40.50;100402.63;1889217;75;28017;-72
2022/03/20 20:33:04;;;;;;;2.25;2.10;;;;;;;24.09;40.60;100404.52;1901360;75;28145;-68
2022/03/20 20:35:53;;;;;;;2.33;2.20;;;;;;;24.10;40.57;100410.33;1893835;74;28195;-73
2022/03/20 20:38:42;;;;;;;2.20;2.08;;;;;;;24.11;40.58;100413.92;1923561;73;28030;-66
2022/03/20 20:41:31;;;;;;;2.40;2.20;;;;;;;24.12;40.61;100416.96;1889085;75;28152;-67
2022/03/20 20:44:23;;;;;;;2.42;2.20;;;;;;;24.10;40.60;100421.31;1901354;73;28289;-67
2022/03/20 20:47:11;;;;;;;2.50;2.30;;;;;;;24.09;40.59;100427.00;1898581;74;28039;-64
2022/03/20 20:50:00;;;;;;;2.30;2.20;;;;;;;24.10;40.61;100434.19;1908805;73;28105;-76
2022/03/20 20:52:49;;;;;;;2.40;2.20;;;;;;;24.09;40.62;100424.26;1921734;73;28059;-74
2022/03/20 20:55:38;;;;;;;2.50;2.30;;;;;;;24.09;40.55;100431.97;1889339;75;28099;-75
2022/03/20 20:58:30;;;;;;;3.50;2.30;;;;;;;24.11;40.51;100440.82;1908861;73;28198;-74
2022/03/20 21:01:19;;;;;;;2.47;2.35;;;;;;;24.09;40.39;100433.34;1907274;73;28087;-77
2022/03/20 21:04:11;;;;;;;2.75;2.20;;;;;;;24.09;40.34;100439.36;1909780;73;28246;-77
2022/03/20 21:13:12;;;;;;;2.40;2.20;;;;;;;24.04;40.27;100444.95;1902310;73;28108;-76
2022/03/20 21:16:03;;;;;;;2.83;2.23;;;;;;;24.07;40.21;100451.95;1901321;75;28188;-76
2022/03/20 21:18:52;;;;;;;2.60;2.40;;;;;;;24.07;40.18;100451.95;1901420;75;28134;-78
2022/03/20 21:21:43;;;;;;;2.40;2.17;;;;;;;24.08;40.15;100450.89;1908956;73;28169;-76
2022/03/20 21:24:31;;;;;;;2.12;2.02;;;;;;;24.05;40.12;100452.14;1916623;73;28195;-77
2022/03/20 21:27:20;;;;;;;9.45;3.00;;;;;;;24.04;40.10;100456.45;1910923;73;28235;-77
2022/03/20 21:30:09;;;;;;;2.60;2.40;;;;;;;23.96;39.66;100460.86;1907462;73;28193;-78
2022/03/20 21:32:59;;;;;;;2.62;2.42;;;;;;;24.02;39.69;100458.59;1914140;73;28509;-76
2022/03/20 21:35:48;;;;;;;2.35;2.20;;;;;;;24.03;39.68;100454.80;1916207;73;28121;-78
2022/03/20 21:38:38;;;;;;;2.37;2.17;;;;;;;24.04;39.70;100466.06;1909222;73;28243;-78
2022/03/20 21:41:27;;;;;;;2.67;2.30;;;;;;;24.04;39.74;100466.06;1916476;73;28486;-76
2022/03/20 21:44:16;;;;;;;2.30;2.15;;;;;;;24.02;39.77;100467.67;1907031;73;28262;-75
2022/03/20 21:47:05;;;;;;;2.55;2.35;;;;;;;24.01;39.81;100470.09;1916495;73;28095;-75
2022/03/20 21:49:53;;;;;;;2.35;2.10;;;;;;;24.02;39.80;100464.08;1909170;73;28030;-77
2022/03/20 21:52:42;;;;;;;2.25;2.15;;;;;;;24.05;39.77;100467.77;1907088;74;28637;-75
2022/03/20 21:55:33;;;;;;;2.47;2.10;;;;;;;24.04;39.76;100480.64;1911110;73;28209;-76
2022/03/20 21:58:21;;;;;;;2.33;2.23;;;;;;;24.08;39.74;100468.73;1911624;73;28207;-78
2022/03/20 22:01:10;;;;;;;2.40;2.20;;;;;;;24.05;39.79;100475.47;1889758;75;31275;-76
2022/03/20 22:04:00;;;;;;;2.72;2.27;;;;;;;24.05;39.78;100475.47;1886129;73;28160;-75
2022/03/20 22:06:49;;;;;;;3.40;2.30;;;;;;;24.05;39.77;100481.48;1878962;75;28165;-79
2022/03/20 22:09:38;;;;;;;2.33;2.22;;;;;;;24.04;39.77;100484.76;1877077;75;28248;-79
2022/03/20 22:12:27;;;;;;;2.20;2.10;;;;;;;24.05;39.78;100478.74;1884122;75;28239;-78
2022/03/20 22:15:15;;;;;;;2.60;2.00;;;;;;;24.05;39.76;100476.84;1882001;75;28213;-77
2022/03/20 22:18:05;;;;;;;2.67;2.00;;;;;;;24.11;39.70;100479.25;1875246;75;38517;-77
2022/03/20 22:20:54;;;;;;;2.50;2.30;;;;;;;24.06;39.73;100483.22;1874554;75;39922;-77
2022/03/20 22:23:42;;;;;;;2.40;2.30;;;;;;;24.05;39.69;100478.22;1891274;75;28155;-78
2022/03/20 22:26:32;;;;;;;2.80;2.33;;;;;;;24.08;39.44;100478.34;1881233;75;28152;-77
2022/03/20 22:29:20;;;;;;;2.25;2.15;;;;;;;24.08;39.44;100478.34;1882974;75;29042;-77
2022/03/20 22:32:08;;;;;;;2.20;2.10;;;;;;;24.03;39.66;100481.72;1877154;75;28161;-78
2022/03/20 22:38:04;;;;;;;2.92;2.20;;;;;;;24.04;39.65;100487.50;1881166;75;28187;-80
2022/03/20 22:40:52;;;;;;;2.27;2.17;;;;;;;24.04;39.69;100496.26;1878060;75;28097;-76
2022/03/20 22:43:40;;;;;;;2.30;2.10;;;;;;;24.04;39.66;100484.76;1872429;75;28259;-76
2022/03/20 22:46:30;;;;;;;2.20;2.10;;;;;;;24.06;39.57;100494.20;1875900;75;28276;-78
2022/03/20 22:52:24;;;;;;;2.30;2.20;;;;;;;24.06;39.60;100494.20;1879986;75;28226;-78
2022/03/20 22:55:18;;;;;;;2.00;1.90;;;;;;;24.03;39.57;100491.33;1893722;73;28164;-77
2022/03/20 22:58:07;;;;;;;2.27;2.17;;;;;;;24.03;39.60;100491.84;1875212;75;28159;-79
2022/03/20 23:00:59;;;;;;;2.20;2.10;;;;;;;24.03;39.61;100490.48;1891243;75;28204;-79
2022/03/20 23:03:47;;;;;;;2.25;2.12;;;;;;;24.06;39.54;100490.08;1901188;73;28148;-77
2022/03/20 23:06:37;;;;;;;2.33;2.07;;;;;;;24.04;39.54;100490.77;1913983;73;28206;-76
2022/03/20 23:09:25;;;;;;;2.10;2.00;;;;;;;24.03;39.52;100490.48;1889066;75;28230;-77
2022/03/20 23:12:15;;;;;;;2.20;2.10;;;;;;;24.05;39.51;100495.21;1905070;73;33035;-78
2022/03/20 23:15:03;;;;;;;2.17;2.07;;;;;;;24.03;39.54;100495.45;1889229;74;28137;-78
2022/03/20 23:17:52;;;;;;;2.20;2.00;;;;;;;24.04;39.51;100499.85;1895931;74;28231;-76
2022/03/20 23:20:41;;;;;;;2.10;2.00;;;;;;;24.03;39.48;100495.97;1901188;75;28160;-77
2022/03/20 23:23:29;;;;;;;2.15;2.00;;;;;;;24.06;39.44;100494.20;1889116;75;28223;-77
2022/03/20 23:26:19;;;;;;;2.40;2.20;;;;;;;24.05;39.43;100493.84;1916764;73;28168;-79
2022/03/20 23:29:08;;;;;;;2.10;2.00;;;;;;;24.05;39.43;100494.69;1896357;74;28117;-76
2022/03/20 23:31:56;;;;;;;2.12;2.00;;;;;;;24.05;39.38;100491.94;1916145;73;28585;-77
2022/03/20 23:34:46;;;;;;;2.30;2.00;;;;;;;24.06;39.37;100496.94;1904367;73;28218;-76
2022/03/20 23:37:37;;;;;;;2.00;1.90;;;;;;;24.03;39.38;100498.19;1925440;73;28145;-76
2022/03/20 23:40:24;;;;;;;2.30;2.10;;;;;;;24.05;39.39;100500.17;1892402;74;28138;-78
2022/03/20 23:43:15;;;;;;;2.10;2.00;;;;;;;24.01;39.39;100501.66;1908382;73;28078;-78
2022/03/20 23:46:04;;;;;;;2.00;1.90;;;;;;;24.01;39.36;100501.66;1893701;74;28187;-76
2022/03/20 23:48:52;;;;;;;2.10;2.00;;;;;;;24.02;39.37;100500.61;1905209;73;28109;-78
2022/03/20 23:51:41;;;;;;;2.00;1.90;;;;;;;24.02;39.37;100497.02;1915958;74;28104;-74
2022/03/20 23:54:29;;;;;;;1.90;1.80;;;;;;;23.99;39.37;100498.30;1901578;74;28102;-73
